Time;durP1;ratioP1;P1;durP2;ratioP2;P2;SDS_P1;SDS_P2;PMS_P1;PMS_P2;Temp;Humidity;BMP_temperature;BMP_pressure;BME280_temperature;BME280_humidity;BME280_pressure;Samples;Min_cycle;Max_cycle;Signal;HPM_P1;HPM_P2
2023/12/19 00:01:01;;;;;;;55.75;25.05;;;6.50;99.90;;;;;;4994733;28;20065;-68
2023/12/19 00:03:27;;;;;;;56.83;25.13;;;6.50;99.90;;;;;;4999532;28;20486;-68
2023/12/19 00:05:52;;;;;;;68.00;27.90;;;6.50;99.90;;;;;;4996862;28;20497;-68
2023/12/19 00:08:18;;;;;;;58.70;27.20;;;6.50;99.90;;;;;;4984223;28;20172;-69
2023/12/19 00:10:44;;;;;;;64.82;27.92;;;6.50;99.90;;;;;;4993868;28;20260;-69
2023/12/19 00:13:10;;;;;;;59.78;28.33;;;6.60;99.90;;;;;;4999470;28;20034;-69
2023/12/19 00:15:35;;;;;;;68.60;29.52;;;6.50;99.90;;;;;;4982131;28;20467;-68
2023/12/19 00:18:01;;;;;;;66.13;29.10;;;6.60;99.90;;;;;;4993018;28;20108;-69
2023/12/19 00:20:28;;;;;;;54.67;26.50;;;6.60;99.90;;;;;;4995920;28;20417;-69
2023/12/19 00:22:54;;;;;;;56.95;28.90;;;6.60;99.90;;;;;;4994792;28;20034;-69
2023/12/19 00:25:23;;;;;;;58.53;26.05;;;6.60;99.90;;;;;;4993107;28;20022;-69
2023/12/19 00:27:49;;;;;;;64.47;29.00;;;6.60;99.90;;;;;;4996522;28;20771;-69
2023/12/19 00:30:15;;;;;;;55.65;27.58;;;6.70;99.90;;;;;;4996602;28;20023;-69
2023/12/19 00:32:41;;;;;;;69.03;29.23;;;6.70;99.90;;;;;;4998518;28;20026;-68
2023/12/19 00:35:08;;;;;;;63.60;29.20;;;6.70;99.90;;;;;;4994716;28;20085;-69
2023/12/19 00:37:34;;;;;;;74.35;33.05;;;6.80;99.90;;;;;;4981938;28;20435;-68
2023/12/19 00:39:59;;;;;;;61.55;31.42;;;6.80;99.90;;;;;;4997724;28;20026;-68
2023/12/19 00:42:25;;;;;;;60.63;28.20;;;6.70;99.90;;;;;;4995148;28;20263;-68
2023/12/19 00:44:51;;;;;;;65.07;28.90;;;6.70;99.90;;;;;;4996328;28;20501;-68
2023/12/19 00:47:17;;;;;;;64.85;30.25;;;6.70;99.90;;;;;;4995583;28;20037;-69
2023/12/19 00:49:43;;;;;;;75.10;31.00;;;6.60;99.90;;;;;;4999125;28;20444;-70
2023/12/19 00:52:08;;;;;;;70.10;30.60;;;6.70;99.90;;;;;;4996475;28;20143;-69
2023/12/19 00:54:35;;;;;;;75.15;31.77;;;6.70;99.90;;;;;;4999005;28;20418;-69
2023/12/19 00:57:00;;;;;;;77.88;31.25;;;6.70;99.90;;;;;;4995338;28;20084;-69
2023/12/19 00:59:26;;;;;;;76.05;29.90;;;6.80;99.90;;;;;;4995692;28;20026;-69
2023/12/19 01:01:52;;;;;;;71.47;30.88;;;6.80;99.90;;;;;;4995914;28;20045;-71
2023/12/19 01:04:19;;;;;;;70.45;30.02;;;6.80;99.90;;;;;;4998463;28;20022;-69
2023/12/19 01:06:45;;;;;;;61.53;27.38;;;6.70;99.90;;;;;;4994497;28;20038;-70
2023/12/19 01:09:11;;;;;;;67.60;29.85;;;6.70;99.90;;;;;;4994397;28;20033;-69
2023/12/19 01:11:36;;;;;;;75.70;31.45;;;6.70;99.90;;;;;;4997589;28;20080;-69
2023/12/19 01:14:03;;;;;;;66.03;28.83;;;6.70;99.90;;;;;;4998474;28;20025;-69
2023/12/19 01:16:28;;;;;;;66.10;29.00;;;6.80;99.90;;;;;;4993951;28;20058;-69
2023/12/19 01:18:55;;;;;;;68.82;28.85;;;6.80;99.90;;;;;;4996265;28;20116;-68
2023/12/19 01:21:20;;;;;;;72.15;30.60;;;6.80;99.90;;;;;;4993249;28;20065;-69
2023/12/19 01:23:46;;;;;;;81.32;31.13;;;6.80;99.90;;;;;;4994090;28;20116;-68
2023/12/19 01:26:12;;;;;;;68.68;29.77;;;6.80;99.90;;;;;;4994412;28;20031;-68
2023/12/19 01:28:39;;;;;;;74.45;30.40;;;6.80;99.90;;;;;;4996600;28;20503;-69
2023/12/19 01:31:05;;;;;;;67.15;28.10;;;6.70;99.90;;;;;;4995530;28;20120;-69
2023/12/19 01:33:31;;;;;;;72.03;29.83;;;6.70;99.90;;;;;;4994083;28;20022;-70
2023/12/19 01:35:56;;;;;;;73.53;28.60;;;6.70;99.90;;;;;;4994182;28;20099;-70
2023/12/19 01:38:22;;;;;;;69.95;29.75;;;6.70;99.90;;;;;;4991545;28;20022;-68
2023/12/19 01:40:48;;;;;;;71.35;30.63;;;6.80;99.90;;;;;;4983290;28;20052;-69
2023/12/19 01:43:21;;;;;;;69.50;28.40;;;6.80;99.90;;;;;;4994610;28;23021;-69
2023/12/19 01:45:51;;;;;;;68.80;27.60;;;6.90;99.90;;;;;;4995820;28;20120;-68
2023/12/19 01:48:17;;;;;;;68.72;26.98;;;6.90;99.90;;;;;;4997116;28;20022;-69
2023/12/19 01:50:43;;;;;;;62.75;27.13;;;6.80;99.90;;;;;;4995121;28;20022;-68
2023/12/19 01:53:10;;;;;;;68.20;28.33;;;6.80;99.90;;;;;;4996087;28;20379;-69
2023/12/19 01:55:38;;;;;;;69.85;28.42;;;6.80;99.90;;;;;;4995366;28;20030;-69
2023/12/19 01:58:04;;;;;;;72.00;30.02;;;6.80;99.90;;;;;;4992805;28;20061;-69
2023/12/19 02:00:30;;;;;;;68.05;29.45;;;6.80;99.90;;;;;;4999118;28;20033;-69
2023/12/19 02:02:57;;;;;;;72.03;29.77;;;6.80;99.90;;;;;;4995743;28;20501;-69
2023/12/19 02:05:23;;;;;;;73.97;30.52;;;7.00;99.90;;;;;;5004869;28;20034;-69
2023/12/19 02:07:49;;;;;;;69.13;30.08;;;6.90;99.90;;;;;;5007421;28;20375;-68
2023/12/19 02:10:15;;;;;;;72.15;30.25;;;6.90;99.90;;;;;;5004683;28;20069;-68
2023/12/19 02:12:44;;;;;;;79.07;31.50;;;6.90;99.90;;;;;;5009434;28;20054;-69
2023/12/19 02:15:10;;;;;;;78.30;31.45;;;6.90;99.90;;;;;;5007446;28;20040;-68
2023/12/19 02:17:36;;;;;;;69.50;29.02;;;7.00;99.90;;;;;;5009722;28;20034;-68
2023/12/19 02:20:02;;;;;;;67.72;30.13;;;6.90;99.90;;;;;;5006194;28;20079;-69
2023/12/19 02:22:30;;;;;;;61.97;27.40;;;6.90;99.90;;;;;;5010117;28;20029;-69
2023/12/19 02:24:57;;;;;;;68.72;27.88;;;6.90;99.90;;;;;;5008506;28;20026;-68
2023/12/19 02:27:24;;;;;;;66.65;27.73;;;7.00;99.90;;;;;;5009892;28;20022;-69
2023/12/19 02:29:49;;;;;;;62.33;27.17;;;7.00;99.90;;;;;;5007346;28;20077;-68
2023/12/19 02:32:15;;;;;;;61.58;26.67;;;7.00;99.90;;;;;;4991418;28;20018;-69
2023/12/19 02:34:41;;;;;;;62.33;27.77;;;7.00;99.90;;;;;;5010094;28;20394;-71
2023/12/19 02:37:07;;;;;;;61.78;26.38;;;6.90;99.90;;;;;;5009726;28;20026;-69
2023/12/19 02:39:32;;;;;;;65.78;27.02;;;6.90;99.90;;;;;;5009026;28;20534;-69
2023/12/19 02:41:58;;;;;;;64.53;27.40;;;7.00;99.90;;;;;;5010198;28;20037;-68
2023/12/19 02:44:24;;;;;;;54.78;26.27;;;7.00;99.90;;;;;;5010352;28;20030;-69
2023/12/19 02:46:50;;;;;;;61.22;25.80;;;7.10;99.90;;;;;;5010489;28;20080;-70
2023/12/19 02:49:16;;;;;;;59.42;27.95;;;7.10;99.90;;;;;;5010302;28;20034;-69
2023/12/19 02:51:42;;;;;;;61.22;27.85;;;7.10;99.90;;;;;;5013396;28;20026;-70
2023/12/19 02:54:07;;;;;;;58.13;26.92;;;7.00;99.90;;;;;;5013784;28;20025;-69
2023/12/19 02:56:34;;;;;;;50.80;24.90;;;7.10;99.90;;;;;;5014208;28;20490;-70
2023/12/19 02:59:00;;;;;;;55.40;24.60;;;7.10;99.90;;;;;;5013793;28;20026;-69
2023/12/19 03:01:26;;;;;;;57.42;27.33;;;7.10;99.90;;;;;;5012289;28;20040;-69
2023/12/19 03:03:52;;;;;;;58.25;26.27;;;7.20;99.90;;;;;;5014437;28;20025;-69
2023/12/19 03:06:18;;;;;;;53.35;24.35;;;7.20;99.90;;;;;;5013819;28;20414;-70
2023/12/19 03:08:45;;;;;;;48.13;22.77;;;7.20;99.90;;;;;;5013011;28;20125;-68
2023/12/19 03:11:11;;;;;;;50.63;21.98;;;7.20;99.90;;;;;;5013809;28;20615;-70
2023/12/19 03:13:37;;;;;;;49.10;24.20;;;7.20;99.90;;;;;;5013716;28;20026;-68
2023/12/19 03:16:03;;;;;;;53.15;24.23;;;7.20;99.90;;;;;;5012765;28;20125;-68
2023/12/19 03:18:29;;;;;;;50.88;24.23;;;7.20;99.90;;;;;;5012762;28;20469;-70
2023/12/19 03:20:55;;;;;;;59.03;25.08;;;7.20;99.90;;;;;;5014113;28;20038;-69
2023/12/19 03:23:24;;;;;;;52.35;24.55;;;7.20;99.90;;;;;;5011829;28;20099;-69
2023/12/19 03:25:50;;;;;;;58.60;26.15;;;7.20;99.90;;;;;;5014090;28;20026;-69
2023/12/19 03:28:15;;;;;;;55.25;24.60;;;7.20;99.90;;;;;;5012815;28;20105;-69
2023/12/19 03:30:41;;;;;;;51.53;24.75;;;7.20;99.90;;;;;;5012057;28;20490;-68
2023/12/19 03:33:07;;;;;;;54.17;23.77;;;7.30;99.90;;;;;;5011492;28;20125;-69
2023/12/19 03:35:33;;;;;;;48.83;22.38;;;7.30;99.90;;;;;;5012577;28;20643;-71
2023/12/19 03:37:59;;;;;;;55.63;25.08;;;7.30;99.90;;;;;;5012260;28;20522;-68
2023/12/19 03:40:25;;;;;;;52.70;24.17;;;7.20;99.90;;;;;;5011770;28;20033;-69
2023/12/19 03:42:50;;;;;;;58.67;26.27;;;7.20;99.90;;;;;;5013753;28;20022;-69
2023/12/19 03:45:16;;;;;;;61.60;25.52;;;7.30;99.90;;;;;;4996271;28;20034;-69
2023/12/19 03:47:42;;;;;;;57.40;24.77;;;7.30;99.90;;;;;;5012319;28;20049;-69
2023/12/19 03:50:08;;;;;;;53.90;25.02;;;7.20;99.90;;;;;;4995220;28;20500;-69
2023/12/19 03:52:35;;;;;;;53.13;24.73;;;7.20;99.90;;;;;;5011321;28;20486;-69
2023/12/19 03:55:01;;;;;;;62.75;26.40;;;7.20;99.90;;;;;;5012949;28;20018;-69
2023/12/19 03:57:27;;;;;;;60.40;26.45;;;7.10;99.90;;;;;;5011127;28;20529;-69
2023/12/19 03:59:53;;;;;;;67.30;27.73;;;7.20;99.90;;;;;;5012020;28;20154;-69
2023/12/19 04:02:19;;;;;;;56.22;25.42;;;7.20;99.90;;;;;;5011271;28;20026;-68
2023/12/19 04:04:45;;;;;;;60.33;28.25;;;7.20;99.90;;;;;;5012049;28;20061;-69
2023/12/19 04:07:11;;;;;;;65.63;27.17;;;7.30;99.90;;;;;;5011651;28;20425;-69
2023/12/19 04:09:37;;;;;;;62.72;27.10;;;7.30;99.90;;;;;;5013900;28;20072;-69
2023/12/19 04:12:03;;;;;;;62.08;27.63;;;7.20;99.90;;;;;;5012328;28;20061;-69
2023/12/19 04:14:32;;;;;;;63.60;25.42;;;7.20;99.90;;;;;;5012444;28;20057;-69
2023/12/19 04:16:59;;;;;;;58.42;24.10;;;7.10;99.90;;;;;;5010115;28;20034;-68
2023/12/19 04:19:25;;;;;;;62.72;26.17;;;7.20;99.90;;;;;;5011023;28;20037;-69
2023/12/19 04:21:51;;;;;;;53.13;25.77;;;7.20;99.90;;;;;;5012436;28;20039;-68
2023/12/19 04:24:18;;;;;;;58.45;25.10;;;7.20;99.90;;;;;;5011016;28;20491;-69
2023/12/19 04:26:43;;;;;;;58.70;25.23;;;7.30;99.90;;;;;;5012151;28;20092;-70
2023/12/19 04:29:09;;;;;;;58.00;24.20;;;7.20;99.90;;;;;;5011910;28;20482;-69
2023/12/19 04:31:37;;;;;;;53.78;22.95;;;7.30;99.90;;;;;;5011013;28;20030;-69
2023/12/19 04:34:02;;;;;;;51.75;24.17;;;7.20;99.90;;;;;;5012418;28;20022;-69
2023/12/19 04:36:30;;;;;;;57.10;24.55;;;7.20;99.90;;;;;;5009893;28;20183;-69
2023/12/19 04:38:56;;;;;;;53.88;23.92;;;7.20;99.90;;;;;;5011968;28;20075;-69
2023/12/19 04:41:22;;;;;;;57.72;24.10;;;7.20;99.90;;;;;;5011136;28;20046;-69
2023/12/19 04:43:47;;;;;;;55.35;23.77;;;7.20;99.90;;;;;;5010279;28;20010;-68
2023/12/19 04:46:13;;;;;;;64.35;25.50;;;7.30;99.90;;;;;;5010183;28;20036;-69
2023/12/19 04:48:41;;;;;;;61.90;25.98;;;7.30;99.90;;;;;;5011362;28;20438;-69
2023/12/19 04:51:08;;;;;;;60.67;25.52;;;7.30;99.90;;;;;;5010910;28;20125;-68
2023/12/19 04:53:34;;;;;;;54.13;24.05;;;7.30;99.90;;;;;;5007246;28;20080;-69
2023/12/19 04:55:59;;;;;;;57.10;24.85;;;7.30;99.90;;;;;;5011886;28;20050;-69
2023/12/19 04:58:25;;;;;;;57.08;25.27;;;7.40;99.90;;;;;;5012992;28;20545;-68
2023/12/19 05:00:52;;;;;;;59.05;25.55;;;7.40;99.90;;;;;;5012327;28;20449;-69
2023/12/19 05:03:18;;;;;;;64.07;27.40;;;7.40;99.90;;;;;;5011273;28;20022;-70
2023/12/19 05:05:44;;;;;;;55.95;26.08;;;7.30;99.90;;;;;;5012183;28;20029;-69
2023/12/19 05:08:11;;;;;;;59.22;26.95;;;7.40;99.90;;;;;;5010907;28;20022;-69
2023/12/19 05:10:37;;;;;;;58.20;26.88;;;7.30;99.90;;;;;;5011493;28;20025;-69
2023/12/19 05:13:03;;;;;;;57.22;25.92;;;7.30;99.90;;;;;;5010846;28;20022;-70
2023/12/19 05:15:29;;;;;;;62.97;28.83;;;7.30;99.90;;;;;;5010776;28;20025;-76
2023/12/19 05:17:54;;;;;;;70.53;28.58;;;7.30;99.90;;;;;;5012289;28;20049;-69
2023/12/19 05:20:21;;;;;;;63.88;27.38;;;7.30;99.90;;;;;;5011210;28;20064;-69
2023/12/19 05:22:47;;;;;;;61.42;25.50;;;7.30;99.90;;;;;;5010723;28;20466;-70
2023/12/19 05:25:13;;;;;;;61.65;26.67;;;7.40;99.90;;;;;;5011286;28;20056;-69
2023/12/19 05:27:43;;;;;;;65.38;27.80;;;7.50;99.90;;;;;;5010040;28;20447;-70
2023/12/19 05:30:12;;;;;;;57.33;27.20;;;7.50;99.90;;;;;;5010711;28;20418;-69
2023/12/19 05:32:39;;;;;;;52.92;24.70;;;7.40;99.90;;;;;;5005813;28;20018;-69
2023/12/19 05:35:05;;;;;;;52.15;24.85;;;7.40;99.90;;;;;;5010018;28;20022;-73
2023/12/19 05:37:31;;;;;;;54.65;24.52;;;7.50;99.90;;;;;;5010092;28;20025;-69
2023/12/19 05:39:57;;;;;;;51.38;23.55;;;7.50;99.90;;;;;;4994470;28;20064;-69
2023/12/19 05:42:24;;;;;;;48.80;23.73;;;7.40;99.90;;;;;;5010912;28;20033;-69
2023/12/19 05:44:50;;;;;;;48.53;24.05;;;7.50;99.90;;;;;;5011815;28;20490;-72
2023/12/19 05:47:15;;;;;;;51.25;23.98;;;7.60;99.90;;;;;;5009657;28;20116;-69
2023/12/19 05:49:41;;;;;;;49.08;22.88;;;7.60;99.90;;;;;;5009964;28;20024;-69
2023/12/19 05:52:07;;;;;;;50.17;24.55;;;7.50;99.90;;;;;;5010755;28;20084;-69
2023/12/19 05:54:33;;;;;;;41.38;21.23;;;7.60;99.90;;;;;;5010525;28;20493;-70
2023/12/19 05:56:59;;;;;;;46.10;21.88;;;7.50;99.90;;;;;;5009725;28;20558;-71
2023/12/19 05:59:24;;;;;;;44.90;22.08;;;7.60;99.90;;;;;;5011638;28;20096;-69
2023/12/19 06:01:50;;;;;;;43.53;21.88;;;7.70;99.90;;;;;;5010440;28;20033;-69
2023/12/19 06:04:16;;;;;;;42.90;21.67;;;7.60;99.90;;;;;;5006833;28;20026;-69
2023/12/19 06:06:44;;;;;;;45.42;21.77;;;7.60;99.90;;;;;;5011353;28;20463;-70
2023/12/19 06:09:12;;;;;;;45.08;21.73;;;7.60;99.90;;;;;;5010029;28;20541;-69
2023/12/19 06:11:38;;;;;;;38.78;20.48;;;7.70;99.90;;;;;;5009018;28;20037;-69
2023/12/19 06:14:05;;;;;;;40.95;19.90;;;7.80;99.90;;;;;;5009701;28;20013;-69
2023/12/19 06:16:32;;;;;;;39.75;21.08;;;7.70;99.90;;;;;;5011437;28;20078;-68
2023/12/19 06:18:58;;;;;;;47.45;21.77;;;7.70;99.90;;;;;;5010188;28;20116;-68
2023/12/19 06:21:24;;;;;;;44.00;19.95;;;7.70;99.90;;;;;;4992968;28;20129;-69
2023/12/19 06:23:50;;;;;;;41.45;20.92;;;7.70;99.90;;;;;;5011961;28;20026;-69
2023/12/19 06:26:16;;;;;;;43.33;22.17;;;7.70;99.90;;;;;;5014159;28;20034;-69
2023/12/19 06:28:42;;;;;;;40.97;20.48;;;7.80;99.90;;;;;;5014230;28;20391;-69
2023/12/19 06:31:08;;;;;;;34.20;19.10;;;7.70;99.90;;;;;;5014945;28;20030;-70
2023/12/19 06:33:34;;;;;;;41.63;20.33;;;7.70;99.90;;;;;;5012866;28;20459;-69
2023/12/19 06:36:01;;;;;;;33.70;19.75;;;7.70;99.90;;;;;;5012561;28;20034;-68
2023/12/19 06:38:26;;;;;;;36.45;19.77;;;7.80;99.90;;;;;;5013632;28;20018;-70
2023/12/19 06:40:52;;;;;;;38.78;19.50;;;7.70;99.90;;;;;;5013341;28;20501;-69
2023/12/19 06:43:19;;;;;;;38.08;18.92;;;7.80;99.90;;;;;;5013830;28;20403;-70
2023/12/19 06:45:44;;;;;;;36.75;19.45;;;7.80;99.90;;;;;;5014369;28;20038;-69
2023/12/19 06:48:10;;;;;;;33.40;19.63;;;7.70;99.90;;;;;;5013150;28;20037;-69
2023/12/19 06:50:39;;;;;;;37.92;20.00;;;7.70;99.90;;;;;;5014134;28;20022;-68
2023/12/19 06:53:05;;;;;;;35.35;21.00;;;7.80;99.90;;;;;;5013774;28;20017;-69
2023/12/19 06:55:31;;;;;;;34.10;18.92;;;7.80;99.90;;;;;;5011350;28;20033;-68
2023/12/19 06:57:57;;;;;;;36.40;21.58;;;7.80;99.90;;;;;;5013451;28;20025;-68
2023/12/19 07:00:23;;;;;;;36.65;19.15;;;7.90;99.90;;;;;;5014102;28;20023;-69
2023/12/19 07:02:49;;;;;;;33.60;17.67;;;7.90;99.90;;;;;;5013102;28;20108;-68
2023/12/19 07:05:15;;;;;;;33.03;17.65;;;7.90;99.90;;;;;;5012743;28;20032;-68
2023/12/19 07:07:40;;;;;;;38.13;18.92;;;7.80;99.90;;;;;;5012078;28;20383;-69
2023/12/19 07:10:06;;;;;;;30.88;17.67;;;7.90;99.90;;;;;;5012794;28;20494;-69
2023/12/19 07:12:32;;;;;;;35.13;18.85;;;7.90;99.90;;;;;;5013525;28;20022;-75
2023/12/19 07:14:58;;;;;;;35.83;17.90;;;7.90;99.90;;;;;;5013340;28;20498;-75
2023/12/19 07:17:23;;;;;;;32.95;17.05;;;7.90;99.90;;;;;;4996073;28;20046;-69
2023/12/19 07:19:49;;;;;;;32.90;17.90;;;7.90;99.90;;;;;;5014375;28;20060;-69
2023/12/19 07:22:15;;;;;;;30.92;16.95;;;7.90;99.90;;;;;;5013602;28;20386;-71
2023/12/19 07:24:41;;;;;;;34.00;18.38;;;8.00;99.90;;;;;;5012938;28;20160;-78
2023/12/19 07:27:06;;;;;;;31.10;17.17;;;8.00;99.90;;;;;;5012524;28;20064;-76
2023/12/19 07:29:32;;;;;;;34.15;16.85;;;7.90;99.90;;;;;;5013361;28;20040;-69
2023/12/19 07:31:58;;;;;;;31.58;17.80;;;8.00;99.90;;;;;;5008369;28;20475;-70
2023/12/19 07:34:24;;;;;;;35.20;16.52;;;8.00;99.90;;;;;;5012000;28;20185;-70
2023/12/19 07:36:51;;;;;;;29.13;16.02;;;8.00;99.90;;;;;;5011907;28;20040;-75
2023/12/19 07:39:17;;;;;;;31.95;16.13;;;8.00;99.90;;;;;;5011540;28;20037;-76
2023/12/19 07:41:42;;;;;;;33.83;16.33;;;7.90;99.90;;;;;;5013207;28;20113;-70
2023/12/19 07:44:11;;;;;;;25.80;14.93;;;7.90;99.90;;;;;;5012563;28;20156;-74
2023/12/19 07:46:40;;;;;;;23.35;14.30;;;7.90;99.90;;;;;;5011698;28;20033;-72
2023/12/19 07:49:06;;;;;;;31.58;15.82;;;7.90;99.90;;;;;;5013655;28;20117;-73
2023/12/19 07:51:32;;;;;;;25.35;14.38;;;8.00;99.90;;;;;;5012133;28;20100;-70
2023/12/19 07:53:58;;;;;;;32.45;16.27;;;8.00;99.90;;;;;;5011552;28;20029;-69
2023/12/19 07:56:24;;;;;;;28.63;15.23;;;8.00;99.90;;;;;;5011181;28;20471;-69
2023/12/19 07:58:51;;;;;;;31.13;15.48;;;8.00;99.90;;;;;;5013198;28;20030;-70
2023/12/19 08:01:17;;;;;;;25.98;14.07;;;8.00;99.90;;;;;;5013553;28;20038;-69
2023/12/19 08:03:44;;;;;;;25.33;14.52;;;8.00;99.90;;;;;;5012749;28;20072;-77
2023/12/19 08:06:10;;;;;;;30.48;14.85;;;8.00;99.90;;;;;;5009516;28;20029;-73
2023/12/19 08:08:35;;;;;;;28.58;15.65;;;8.00;99.90;;;;;;5010539;28;20419;-76
2023/12/19 08:11:01;;;;;;;24.85;15.07;;;8.00;99.90;;;;;;5012849;28;20041;-73
2023/12/19 08:13:27;;;;;;;26.30;14.63;;;8.10;99.90;;;;;;5012823;28;20033;-70
2023/12/19 08:15:53;;;;;;;27.25;14.73;;;8.10;99.90;;;;;;5011609;28;20037;-75
2023/12/19 08:18:19;;;;;;;26.38;14.98;;;8.10;99.90;;;;;;5011420;28;20026;-74
2023/12/19 08:20:45;;;;;;;24.85;15.25;;;8.00;99.90;;;;;;5013067;28;20064;-75
2023/12/19 08:23:11;;;;;;;27.45;15.13;;;8.10;99.90;;;;;;5012640;28;20463;-71
2023/12/19 08:25:41;;;;;;;29.42;14.88;;;8.10;99.90;;;;;;5011638;28;20022;-72
2023/12/19 08:28:10;;;;;;;24.73;14.45;;;8.10;99.90;;;;;;5008845;28;20152;-73
2023/12/19 08:30:37;;;;;;;26.05;14.50;;;8.10;99.90;;;;;;5009265;28;20041;-70
2023/12/19 08:33:03;;;;;;;25.90;14.18;;;8.20;99.90;;;;;;5011777;28;20087;-70
2023/12/19 08:35:29;;;;;;;24.63;14.00;;;8.20;99.90;;;;;;4992878;28;20122;-70
2023/12/19 08:37:55;;;;;;;30.50;14.95;;;8.20;99.90;;;;;;5012693;28;20018;-69
2023/12/19 08:40:21;;;;;;;23.50;13.30;;;8.20;99.90;;;;;;5010661;28;20820;-71
2023/12/19 08:42:48;;;;;;;27.60;13.80;;;8.30;99.90;;;;;;5009164;28;20022;-70
2023/12/19 08:45:15;;;;;;;24.67;13.02;;;8.30;99.90;;;;;;5010228;28;20408;-70
2023/12/19 08:47:42;;;;;;;30.48;14.50;;;8.30;99.90;;;;;;5007851;28;20025;-73
2023/12/19 08:50:10;;;;;;;27.08;14.77;;;8.40;99.90;;;;;;4995062;28;20037;-72
2023/12/19 08:52:40;;;;;;;26.40;14.70;;;8.30;99.90;;;;;;4994898;28;20032;-74
2023/12/19 08:55:07;;;;;;;28.60;14.98;;;8.30;99.90;;;;;;5010583;28;20122;-70
2023/12/19 08:57:35;;;;;;;24.02;13.82;;;8.30;99.90;;;;;;5011897;28;20395;-72
2023/12/19 09:00:05;;;;;;;29.55;16.13;;;8.30;99.90;;;;;;5011472;28;20022;-70
2023/12/19 09:02:30;;;;;;;29.27;16.15;;;8.30;99.90;;;;;;5009473;28;20053;-70
2023/12/19 09:04:56;;;;;;;30.38;15.43;;;8.30;99.90;;;;;;5010155;28;20471;-70
2023/12/19 09:07:22;;;;;;;29.50;16.35;;;8.30;99.90;;;;;;5010450;28;20468;-71
2023/12/19 09:09:48;;;;;;;31.92;17.05;;;8.30;99.90;;;;;;4982456;28;20025;-72
2023/12/19 09:12:13;;;;;;;32.95;18.20;;;8.30;99.90;;;;;;4985505;28;20030;-75
2023/12/19 09:14:39;;;;;;;30.92;18.60;;;8.30;99.90;;;;;;4994753;28;20085;-70
2023/12/19 09:17:05;;;;;;;32.47;16.58;;;8.40;99.90;;;;;;4993647;28;20038;-70
2023/12/19 09:19:31;;;;;;;33.05;17.13;;;8.40;99.90;;;;;;4993490;28;20555;-72
2023/12/19 09:21:57;;;;;;;28.55;16.48;;;8.30;99.90;;;;;;4995993;28;20038;-73
2023/12/19 09:24:23;;;;;;;34.72;17.33;;;8.20;99.90;;;;;;4984585;28;20058;-72
2023/12/19 09:26:49;;;;;;;30.63;17.83;;;8.20;99.90;;;;;;4992907;28;20026;-72
2023/12/19 09:29:14;;;;;;;28.50;17.02;;;8.30;99.90;;;;;;4995086;28;20025;-71
2023/12/19 09:31:45;;;;;;;32.15;17.45;;;8.30;99.90;;;;;;5001268;28;20512;-73
2023/12/19 09:34:10;;;;;;;34.53;20.10;;;8.20;99.90;;;;;;4994248;28;20490;-72
2023/12/19 09:36:36;;;;;;;29.63;16.88;;;8.30;99.90;;;;;;4994066;28;20030;-71
2023/12/19 09:39:03;;;;;;;30.55;17.90;;;8.30;99.90;;;;;;4995091;28;20026;-72
2023/12/19 09:41:29;;;;;;;28.95;15.05;;;8.30;99.90;;;;;;4995750;28;20450;-71
2023/12/19 09:43:55;;;;;;;31.15;15.50;;;8.20;99.90;;;;;;4994173;28;20625;-71
2023/12/19 09:46:24;;;;;;;28.48;14.52;;;8.30;99.90;;;;;;4993666;28;20025;-71
2023/12/19 09:48:50;;;;;;;29.45;14.90;;;8.30;99.90;;;;;;4983073;28;20490;-72
2023/12/19 09:51:28;;;;;;;28.23;14.82;;;8.30;99.90;;;;;;4983660;28;20037;-71
2023/12/19 09:53:55;;;;;;;27.83;15.82;;;8.30;99.90;;;;;;4984685;28;20029;-72
2023/12/19 09:56:22;;;;;;;32.70;16.05;;;8.30;99.90;;;;;;4997174;28;20105;-73
2023/12/19 09:58:50;;;;;;;29.83;15.45;;;8.40;99.90;;;;;;4991209;28;20026;-71
2023/12/19 10:01:19;;;;;;;34.22;17.95;;;8.30;99.90;;;;;;4991175;28;20034;-71
2023/12/19 10:03:45;;;;;;;28.27;14.23;;;8.40;99.90;;;;;;4981348;28;20015;-71
2023/12/19 10:06:11;;;;;;;26.25;14.27;;;8.40;99.90;;;;;;4996038;28;20482;-71
2023/12/19 10:08:44;;;;;;;26.15;14.52;;;8.30;99.90;;;;;;4991463;28;20022;-71
2023/12/19 10:11:17;;;;;;;30.02;15.98;;;8.40;99.90;;;;;;4995610;28;20101;-71
2023/12/19 10:13:44;;;;;;;28.13;15.23;;;8.30;99.90;;;;;;4993712;28;20502;-72
2023/12/19 10:16:17;;;;;;;27.13;14.98;;;8.30;99.90;;;;;;4994463;28;20027;-71
2023/12/19 10:18:44;;;;;;;30.00;15.85;;;8.30;99.90;;;;;;4991024;28;20107;-71
2023/12/19 10:21:15;;;;;;;31.27;13.82;;;8.30;99.90;;;;;;4991885;28;20037;-72
2023/12/19 10:23:41;;;;;;;28.17;14.70;;;8.30;99.90;;;;;;4995324;28;20049;-71
2023/12/19 10:26:07;;;;;;;25.75;13.38;;;8.30;99.90;;;;;;4993366;28;20108;-71
2023/12/19 10:28:33;;;;;;;26.70;14.50;;;8.30;99.90;;;;;;4994213;28;20035;-72
2023/12/19 10:31:16;;;;;;;27.67;15.10;;;8.40;99.90;;;;;;4983561;28;20025;-71
2023/12/19 10:33:46;;;;;;;;;;;8.40;99.90;;;;;;4981876;28;20030;-72
2023/12/19 10:36:41;;;;;;;24.02;12.90;;;8.40;99.90;;;;;;4994529;28;19918;-72
2023/12/19 10:39:07;;;;;;;26.15;13.95;;;8.30;99.90;;;;;;4992998;28;20386;-71
2023/12/19 10:41:36;;;;;;;22.63;12.63;;;8.40;99.90;;;;;;4991380;28;20045;-71
2023/12/19 10:44:02;;;;;;;23.85;13.65;;;8.30;99.90;;;;;;4992566;28;20019;-69
2023/12/19 10:46:30;;;;;;;27.45;14.48;;;8.40;99.90;;;;;;4992277;28;20026;-70
2023/12/19 10:49:03;;;;;;;22.98;13.32;;;8.30;99.90;;;;;;4993946;28;20038;-70
2023/12/19 10:51:41;;;;;;;25.13;13.65;;;8.40;99.90;;;;;;4995154;28;20029;-70
2023/12/19 10:54:12;;;;;;;24.58;13.75;;;8.40;99.90;;;;;;4976854;28;20033;-70
2023/12/19 10:57:06;;;;;;;24.00;13.43;;;8.40;99.90;;;;;;4977478;28;20026;-71
2023/12/19 10:59:37;;;;;;;26.25;13.95;;;8.40;99.90;;;;;;4984157;28;20109;-71
2023/12/19 11:02:13;;;;;;;27.88;14.68;;;8.40;99.90;;;;;;4982907;28;20483;-71
2023/12/19 11:04:49;;;;;;;28.35;15.88;;;8.40;99.90;;;;;;4991799;28;20038;-70
2023/12/19 11:07:17;;;;;;;25.73;14.38;;;8.50;99.90;;;;;;4995356;28;20034;-69
2023/12/19 11:09:47;;;;;;;24.00;13.77;;;8.50;99.90;;;;;;4983973;28;20026;-73
2023/12/19 11:12:13;;;;;;;23.88;13.48;;;8.50;99.90;;;;;;4987227;28;20483;-74
2023/12/19 11:14:40;;;;;;;27.05;13.43;;;8.50;99.90;;;;;;4994365;28;20033;-72
2023/12/19 11:17:17;;;;;;;26.20;13.80;;;8.50;99.90;;;;;;4997096;28;20076;-73
2023/12/19 11:20:03;;;;;;;25.67;13.40;;;8.50;99.90;;;;;;4986536;28;20030;-73
2023/12/19 11:22:45;;;;;;;27.30;13.32;;;8.50;99.90;;;;;;4983553;28;20087;-73
2023/12/19 11:25:34;;;;;;;26.60;13.98;;;8.50;99.90;;;;;;4987297;28;20033;-73
2023/12/19 11:28:04;;;;;;;29.92;13.95;;;8.60;99.90;;;;;;4997358;28;20023;-72
2023/12/19 11:30:30;;;;;;;26.15;13.27;;;8.60;99.90;;;;;;4999787;28;20088;-72
2023/12/19 11:32:56;;;;;;;26.20;14.57;;;8.60;99.90;;;;;;4994518;28;20041;-72
2023/12/19 11:35:28;;;;;;;29.45;14.10;;;8.60;99.90;;;;;;4996341;28;20394;-73
2023/12/19 11:38:14;;;;;;;26.52;15.48;;;8.60;99.90;;;;;;4995233;28;20070;-73
2023/12/19 11:40:45;;;;;;;26.38;14.73;;;8.50;99.90;;;;;;4995517;28;20533;-72
2023/12/19 11:43:31;;;;;;;32.40;17.20;;;8.50;99.90;;;;;;5002087;28;20030;-73
2023/12/19 11:46:17;;;;;;;27.02;14.73;;;8.50;99.90;;;;;;4997971;28;20478;-73
2023/12/19 11:48:48;;;;;;;35.03;16.33;;;8.50;99.90;;;;;;4995783;28;20027;-73
2023/12/19 11:51:14;;;;;;;32.20;15.88;;;8.60;99.90;;;;;;4982363;28;20057;-73
2023/12/19 11:53:41;;;;;;;31.83;16.08;;;8.60;99.90;;;;;;4996189;28;20018;-73
2023/12/19 11:56:12;;;;;;;35.53;17.98;;;8.60;99.90;;;;;;4987355;28;20029;-72
2023/12/19 11:58:50;;;;;;;37.65;18.48;;;8.70;99.90;;;;;;4984357;28;20028;-72
2023/12/19 12:01:17;;;;;;;34.83;17.60;;;8.70;99.90;;;;;;4995188;28;20042;-73
2023/12/19 12:03:43;;;;;;;34.45;17.23;;;8.70;99.90;;;;;;4990375;28;20068;-72
2023/12/19 12:06:08;;;;;;;34.13;16.83;;;8.60;99.90;;;;;;4998498;28;20030;-71
2023/12/19 12:08:34;;;;;;;37.28;18.80;;;8.70;99.90;;;;;;4994886;28;20030;-70
2023/12/19 12:11:02;;;;;;;38.90;18.33;;;8.70;99.90;;;;;;4998555;28;20984;-72
2023/12/19 12:13:30;;;;;;;34.25;17.52;;;8.70;99.90;;;;;;4998914;28;20074;-70
2023/12/19 12:15:57;;;;;;;33.97;16.05;;;8.80;99.90;;;;;;4988928;28;20454;-70
2023/12/19 12:18:23;;;;;;;41.70;16.85;;;8.80;99.90;;;;;;4999450;28;20030;-73
2023/12/19 12:20:49;;;;;;;34.47;17.50;;;8.80;99.90;;;;;;4996396;28;20121;-72
2023/12/19 12:23:19;;;;;;;33.65;16.58;;;8.80;99.90;;;;;;4993699;28;20030;-74
2023/12/19 12:25:54;;;;;;;32.83;16.75;;;8.80;99.90;;;;;;4986742;28;20045;-73
2023/12/19 12:28:21;;;;;;;36.40;16.65;;;8.80;99.90;;;;;;4995017;28;20061;-72
2023/12/19 12:30:47;;;;;;;36.55;17.17;;;8.90;99.90;;;;;;4986841;28;20818;-73
2023/12/19 12:33:13;;;;;;;33.42;16.13;;;8.80;99.90;;;;;;4997571;28;20026;-72
2023/12/19 12:35:39;;;;;;;30.45;15.73;;;8.80;99.90;;;;;;4993690;28;20442;-73
2023/12/19 12:38:07;;;;;;;32.25;16.73;;;8.90;99.90;;;;;;4998415;28;20035;-73